Houwa Maru — JL6394 — position and weather

sailwx.info

Track history (hours):
 
Tides and Currents Weather Stations Pressure Air Temp Water Temp Dewpoint Dewpoint Depression Visibility Wind Speed Wind Dir Waves Ship Positions

Houwa Maru

Last reported at 2014-Aug-18 10:10 UTC. Time now 2014-Aug-21 00:26 UTC.
Position N 34°57' E 139°44'.

Length 76 m.

Type: Ship. MMSI: 431500378.

Date/timePositionNaut miles runAvg speedWind from/ knotsBaromVisibWave heightAir tempDewpointWater temp
2014-Aug-18 10:10N 34°57' E 139°44'711.7
2014-Aug-18 09:33N 35°05' E 139°45'1111.2
2014-Aug-18 08:33N 35°16' E 139°46'10 9.7
2014-Aug-18 07:33N 35°25' E 139°45'1110.5
2014-Aug-18 06:33N 35°32' E 139°54'9 8.7
2014-Aug-18 05:33N 35°41' E 139°58'0 0.1
2014-Aug-18 04:31N 35°41' E 139°57'0 0.0
2014-Aug-18 03:28N 35°41' E 139°57'3 3.5
2014-Aug-18 02:32N 35°38' E 139°59'0 0.0
2014-Aug-18 01:32N 35°38' E 139°59'3 2.9
2014-Aug-18 00:27N 35°41' E 139°59'0 0.0
2014-Aug-17 18:33N 35°41' E 139°59'0 0.0
2014-Aug-17 17:33N 35°41' E 139°58'0 0.0
2014-Aug-17 16:33N 35°41' E 139°58'0 0.0
2014-Aug-17 15:33N 35°41' E 139°59'0 0.0
2014-Aug-17 14:33N 35°41' E 139°58'0 0.0
2014-Aug-17 13:33N 35°41' E 139°58'0 0.0
2014-Aug-17 12:30N 35°41' E 139°59'0 0.1
2014-Aug-17 11:33N 35°41' E 139°58'0 0.0
2014-Aug-17 10:33N 35°41' E 139°59'0 0.0
2014-Aug-17 09:33N 35°41' E 139°59'0 0.0
2014-Aug-17 08:27N 35°41' E 139°58'0 0.1
2014-Aug-17 07:33N 35°41' E 139°59'0 0.0
2014-Aug-17 06:27N 35°41' E 139°59'0 0.0
2014-Aug-17 05:27N 35°41' E 139°58'0 0.0
2014-Aug-17 04:27N 35°41' E 139°58'0 0.1
2014-Aug-17 03:33N 35°41' E 139°59'0 0.0
2014-Aug-17 02:33N 35°41' E 139°58'1 0.6
2014-Aug-17 01:33N 35°40' E 139°59'8 8.2
2014-Aug-17 00:33N 35°32' E 139°56'12 9.9
2014-Aug-16 23:19N 35°23' E 139°46'8 9.4
2014-Aug-16 22:29N 35°16' E 139°47'1010.2
2014-Aug-16 21:33N 35°06' E 139°44'1110.7
2014-Aug-16 20:33N 35°00' E 139°33'  
2014-Aug-14 08:12N 35°03' E 139°29'812.1
2014-Aug-14 07:33N 35°06' E 139°38'1111.0
2014-Aug-14 06:33N 35°15' E 139°46'1111.0
2014-Aug-14 05:33N 35°25' E 139°42'3 2.7
2014-Aug-14 04:29N 35°28' E 139°40'0 0.0
2014-Aug-14 03:29N 35°28' E 139°40'0 0.0
2014-Aug-14 02:29N 35°28' E 139°40'0 0.0
2014-Aug-14 01:23N 35°28' E 139°40'0 0.0
2014-Aug-14 00:29N 35°28' E 139°40'0 0.0
2014-Aug-13 23:26N 35°28' E 139°40'2 2.0
2014-Aug-13 22:31N 35°27' E 139°42'1 1.0
2014-Aug-13 21:33N 35°26' E 139°43'0 0.0
2014-Aug-13 20:06N 35°26' E 139°43'0 0.0
2014-Aug-13 19:24N 35°26' E 139°43'0 0.1
2014-Aug-13 18:33N 35°26' E 139°43'0 0.0
2014-Aug-13 17:33N 35°26' E 139°43'0 0.0
2014-Aug-13 16:33N 35°26' E 139°43'0 0.0
2014-Aug-13 15:15N 35°26' E 139°43'6 7.6
2014-Aug-13 14:26N 35°20' E 139°43'8 9.2
2014-Aug-13 13:31N 35°12' E 139°47'1010.8
2014-Aug-13 12:33N 35°02' E 139°44'  
Track history (hours):
 
Tides and Currents Weather Stations Pressure Air Temp Water Temp Dewpoint Dewpoint Depression Visibility Wind Speed Wind Dir Waves Ship Positions

Houwa Maru

Last reported at 2014-Aug-18 10:10 UTC. Time now 2014-Aug-21 00:26 UTC.
Position N 34°57' E 139°44'.

Length 76 m.

Type: Ship. MMSI: 431500378.

Date/timePositionNaut miles runAvg speedWind from/ knotsBaromVisibWave heightAir tempDewpointWater temp
2014-Aug-18 10:10N 34°57' E 139°44'711.7
2014-Aug-18 09:33N 35°05' E 139°45'1111.2
2014-Aug-18 08:33N 35°16' E 139°46'10 9.7
2014-Aug-18 07:33N 35°25' E 139°45'1110.5
2014-Aug-18 06:33N 35°32' E 139°54'9 8.7
2014-Aug-18 05:33N 35°41' E 139°58'0 0.1
2014-Aug-18 04:31N 35°41' E 139°57'0 0.0
2014-Aug-18 03:28N 35°41' E 139°57'3 3.5
2014-Aug-18 02:32N 35°38' E 139°59'0 0.0
2014-Aug-18 01:32N 35°38' E 139°59'3 2.9
2014-Aug-18 00:27N 35°41' E 139°59'0 0.0
2014-Aug-17 18:33N 35°41' E 139°59'0 0.0
2014-Aug-17 17:33N 35°41' E 139°58'0 0.0
2014-Aug-17 16:33N 35°41' E 139°58'0 0.0
2014-Aug-17 15:33N 35°41' E 139°59'0 0.0
2014-Aug-17 14:33N 35°41' E 139°58'0 0.0
2014-Aug-17 13:33N 35°41' E 139°58'0 0.0
2014-Aug-17 12:30N 35°41' E 139°59'0 0.1
2014-Aug-17 11:33N 35°41' E 139°58'0 0.0
2014-Aug-17 10:33N 35°41' E 139°59'0 0.0
2014-Aug-17 09:33N 35°41' E 139°59'0 0.0
2014-Aug-17 08:27N 35°41' E 139°58'0 0.1
2014-Aug-17 07:33N 35°41' E 139°59'0 0.0
2014-Aug-17 06:27N 35°41' E 139°59'0 0.0
2014-Aug-17 05:27N 35°41' E 139°58'0 0.0
2014-Aug-17 04:27N 35°41' E 139°58'0 0.1
2014-Aug-17 03:33N 35°41' E 139°59'0 0.0
2014-Aug-17 02:33N 35°41' E 139°58'1 0.6
2014-Aug-17 01:33N 35°40' E 139°59'8 8.2
2014-Aug-17 00:33N 35°32' E 139°56'12 9.9
2014-Aug-16 23:19N 35°23' E 139°46'8 9.4
2014-Aug-16 22:29N 35°16' E 139°47'1010.2
2014-Aug-16 21:33N 35°06' E 139°44'1110.7
2014-Aug-16 20:33N 35°00' E 139°33'  
2014-Aug-14 08:12N 35°03' E 139°29'812.1
2014-Aug-14 07:33N 35°06' E 139°38'1111.0
2014-Aug-14 06:33N 35°15' E 139°46'1111.0
2014-Aug-14 05:33N 35°25' E 139°42'3 2.7
2014-Aug-14 04:29N 35°28' E 139°40'0 0.0
2014-Aug-14 03:29N 35°28' E 139°40'0 0.0
2014-Aug-14 02:29N 35°28' E 139°40'0 0.0
2014-Aug-14 01:23N 35°28' E 139°40'0 0.0
2014-Aug-14 00:29N 35°28' E 139°40'0 0.0
2014-Aug-13 23:26N 35°28' E 139°40'2 2.0
2014-Aug-13 22:31N 35°27' E 139°42'1 1.0
2014-Aug-13 21:33N 35°26' E 139°43'0 0.0
2014-Aug-13 20:06N 35°26' E 139°43'0 0.0
2014-Aug-13 19:24N 35°26' E 139°43'0 0.1
2014-Aug-13 18:33N 35°26' E 139°43'0 0.0
2014-Aug-13 17:33N 35°26' E 139°43'0 0.0
2014-Aug-13 16:33N 35°26' E 139°43'0 0.0
2014-Aug-13 15:15N 35°26' E 139°43'6 7.6
2014-Aug-13 14:26N 35°20' E 139°43'8 9.2
2014-Aug-13 13:31N 35°12' E 139°47'1010.8
2014-Aug-13 12:33N 35°02' E 139°44'  

Dump ship's entire track history